createdAt,value
2023-04-16T00:01:23.686Z,5.88
2023-04-16T00:05:01.512Z,5.87
2023-04-16T00:08:39.255Z,5.84
2023-04-16T00:12:16.972Z,5.80
2023-04-16T00:15:54.139Z,5.77
2023-04-16T00:19:31.890Z,5.76
2023-04-16T00:23:09.755Z,5.75
2023-04-16T00:26:47.302Z,5.73
2023-04-16T00:30:25.119Z,5.73
2023-04-16T00:34:02.550Z,5.72
2023-04-16T00:37:40.475Z,5.73
2023-04-16T00:41:18.160Z,5.72
2023-04-16T00:44:55.592Z,5.71
2023-04-16T00:48:35.030Z,5.70
2023-04-16T00:52:12.259Z,5.70
2023-04-16T00:55:48.638Z,5.71
2023-04-16T00:59:27.770Z,5.73
2023-04-16T01:03:05.429Z,5.73
2023-04-16T01:06:41.627Z,5.72
2023-04-16T01:10:19.393Z,5.72
2023-04-16T01:13:57.174Z,5.72
2023-04-16T01:17:34.682Z,5.72
2023-04-16T01:21:12.439Z,5.72
2023-04-16T01:24:50.163Z,5.73
2023-04-16T01:28:27.897Z,5.72
2023-04-16T01:32:05.784Z,5.70
2023-04-16T01:35:43.120Z,5.66
2023-04-16T01:39:21.125Z,5.65
2023-04-16T01:43:00.704Z,5.63
2023-04-16T01:46:37.915Z,5.62
2023-04-16T01:50:14.157Z,5.61
2023-04-16T01:53:51.840Z,5.60
2023-04-16T01:57:29.869Z,5.59
2023-04-16T02:01:07.071Z,5.60
2023-04-16T02:04:45.975Z,5.60
2023-04-16T02:08:22.689Z,5.59
2023-04-16T02:12:00.471Z,5.56
2023-04-16T02:15:37.882Z,5.56
2023-04-16T02:19:14.979Z,5.54
2023-04-16T02:22:53.039Z,5.50
2023-04-16T02:26:32.770Z,5.48
2023-04-16T02:30:09.074Z,5.47
2023-04-16T02:33:46.004Z,5.45
2023-04-16T02:37:23.814Z,5.45
2023-04-16T02:41:01.312Z,5.44
2023-04-16T02:44:39.200Z,5.45
2023-04-16T02:48:16.433Z,5.45
2023-04-16T02:51:54.468Z,5.46
2023-04-16T02:55:31.935Z,5.45
2023-04-16T02:59:10.106Z,5.44
2023-04-16T03:02:47.159Z,5.44
2023-04-16T03:06:26.295Z,5.43
2023-04-16T03:10:02.753Z,5.41
2023-04-16T03:13:40.270Z,5.38
2023-04-16T03:17:18.139Z,5.37
2023-04-16T03:20:55.778Z,5.34
2023-04-16T03:24:33.191Z,5.31
2023-04-16T03:28:11.122Z,5.30
2023-04-16T03:31:48.684Z,5.27
2023-04-16T03:35:26.180Z,5.27
2023-04-16T03:39:03.967Z,5.25
2023-04-16T03:42:41.941Z,5.23
2023-04-16T03:46:19.166Z,5.22
2023-04-16T03:49:57.336Z,5.21
2023-04-16T03:53:34.561Z,5.20
2023-04-16T03:57:12.299Z,5.20
2023-04-16T04:00:52.040Z,5.19
2023-04-16T04:04:28.007Z,5.18
2023-04-16T04:08:05.959Z,5.17
2023-04-16T04:11:44.055Z,5.17
2023-04-16T04:15:20.805Z,5.16
2023-04-16T04:19:00.267Z,5.18
2023-04-16T04:22:36.173Z,5.19
2023-04-16T04:26:13.897Z,5.20
2023-04-16T04:29:51.427Z,5.22
2023-04-16T04:33:29.229Z,5.23
2023-04-16T04:37:06.890Z,5.22
2023-04-16T04:40:44.462Z,5.20
2023-04-16T04:44:22.436Z,5.18
2023-04-16T04:47:59.921Z,5.18
2023-04-16T04:51:37.643Z,5.19
2023-04-16T04:55:16.273Z,5.18
2023-04-16T04:58:52.838Z,5.16
2023-04-16T05:02:31.432Z,5.14
2023-04-16T05:06:08.465Z,5.14
2023-04-16T05:09:45.932Z,5.13
2023-04-16T05:13:23.554Z,5.14
2023-04-16T05:17:01.423Z,5.15
2023-04-16T05:20:39.148Z,5.14
2023-04-16T05:24:16.603Z,5.16
2023-04-16T05:27:55.146Z,5.18
2023-04-16T05:31:32.018Z,5.16
2023-04-16T05:35:10.090Z,5.18
2023-04-16T05:38:47.593Z,5.19
2023-04-16T05:42:24.596Z,5.23
2023-04-16T05:46:02.961Z,5.26
2023-04-16T05:49:40.189Z,5.27
2023-04-16T05:53:19.171Z,5.27
2023-04-16T05:56:55.878Z,5.28
2023-04-16T06:00:34.225Z,5.27
2023-04-16T06:04:11.236Z,5.27
2023-04-16T06:07:49.071Z,5.30
2023-04-16T06:11:27.812Z,5.33
2023-04-16T06:15:04.552Z,5.35
2023-04-16T06:18:41.534Z,5.36
2023-04-16T06:22:19.523Z,5.40
2023-04-16T06:25:57.579Z,5.45
2023-04-16T06:29:41.079Z,5.51
2023-04-16T06:33:12.760Z,5.56
2023-04-16T06:36:50.270Z,5.62
2023-04-16T06:40:28.040Z,5.67
2023-04-16T06:44:06.132Z,5.73
2023-04-16T06:47:43.297Z,5.80
2023-04-16T06:51:21.065Z,5.89
2023-04-16T06:54:58.991Z,5.97
2023-04-16T06:58:36.658Z,6.03
2023-04-16T07:02:14.143Z,6.10
2023-04-16T07:05:51.956Z,6.19
2023-04-16T07:09:29.892Z,6.29
2023-04-16T07:13:06.976Z,6.39
2023-04-16T07:16:44.630Z,6.45
2023-04-16T07:20:22.359Z,6.50
2023-04-16T07:23:59.994Z,6.57
2023-04-16T07:27:37.663Z,6.60
2023-04-16T07:31:15.767Z,6.64
2023-04-16T07:34:53.235Z,6.72
2023-04-16T07:38:30.780Z,6.91
2023-04-16T07:42:08.484Z,7.05
2023-04-16T07:45:46.161Z,7.20
2023-04-16T07:49:23.628Z,7.28
2023-04-16T07:53:01.785Z,7.31
2023-04-16T07:56:39.006Z,7.36
2023-04-16T08:00:17.095Z,7.44
2023-04-16T08:03:54.644Z,7.53
2023-04-16T08:07:34.458Z,7.63
2023-04-16T08:11:10.043Z,7.70
2023-04-16T08:14:48.008Z,7.82
2023-04-16T08:18:25.101Z,7.98
2023-04-16T08:22:02.773Z,8.15
2023-04-16T08:25:40.529Z,8.39
2023-04-16T08:29:18.293Z,8.82
2023-04-16T08:32:56.123Z,9.15
2023-04-16T08:36:52.181Z,9.45
2023-04-16T08:40:12.889Z,9.60
2023-04-16T08:43:54.382Z,9.72
2023-04-16T08:47:32.050Z,9.70
2023-04-16T08:51:07.884Z,9.82
2023-04-16T08:54:46.617Z,9.97
2023-04-16T08:58:22.460Z,10.03
2023-04-16T09:01:59.745Z,10.08
2023-04-16T09:05:35.643Z,10.07
2023-04-16T09:09:13.229Z,10.19
2023-04-16T09:12:50.257Z,10.74
2023-04-16T09:16:33.760Z,11.27
2023-04-16T09:20:11.299Z,11.65
2023-04-16T09:23:43.967Z,11.87
2023-04-16T09:27:24.706Z,11.99
2023-04-16T09:31:16.079Z,12.26
2023-04-16T09:34:55.089Z,12.25
2023-04-16T09:38:14.006Z,12.34
2023-04-16T09:41:54.838Z,12.75
2023-04-16T09:45:33.103Z,13.05
2023-04-16T09:49:19.453Z,13.26
2023-04-16T09:52:49.822Z,13.25
2023-04-16T09:56:26.358Z,13.24
2023-04-16T10:00:06.527Z,13.28
2023-04-16T10:03:40.498Z,13.35
2023-04-16T10:07:15.684Z,13.39
2023-04-16T10:10:56.675Z,13.36
2023-04-16T10:14:31.606Z,13.41
2023-04-16T10:18:08.652Z,13.43
2023-04-16T10:21:47.144Z,13.50
2023-04-16T10:25:24.592Z,13.66
2023-04-16T10:29:02.705Z,13.89
2023-04-16T10:32:40.138Z,14.05
2023-04-16T10:36:23.753Z,14.33
2023-04-16T10:39:54.563Z,14.41
2023-04-16T10:43:34.463Z,14.40
2023-04-16T10:47:12.356Z,14.31
2023-04-16T10:50:58.218Z,14.18
2023-04-16T10:54:27.424Z,14.20
2023-04-16T10:58:02.765Z,14.34
2023-04-16T11:01:46.048Z,14.37
2023-04-16T11:05:24.616Z,14.37
2023-04-16T11:08:56.881Z,14.51
2023-04-16T11:16:16.850Z,14.74
2023-04-16T11:19:50.832Z,14.90
2023-04-16T11:23:28.044Z,15.00
2023-04-16T11:27:05.413Z,15.00
2023-04-16T11:30:43.300Z,14.83
2023-04-16T11:34:21.558Z,14.77
2023-04-16T11:37:58.909Z,14.60
2023-04-16T11:41:49.791Z,14.52
2023-04-16T11:45:14.156Z,14.45
2023-04-16T11:48:54.029Z,14.34
2023-04-16T11:52:33.818Z,14.23
2023-04-16T11:56:07.412Z,14.16
2023-04-16T12:00:01.673Z,14.02
2023-04-16T12:03:44.353Z,13.81
2023-04-16T12:07:06.917Z,13.57
2023-04-16T12:10:53.845Z,13.36
2023-04-16T12:14:15.679Z,13.21
2023-04-16T12:18:08.118Z,13.08
2023-04-16T12:21:50.527Z,12.92
2023-04-16T12:25:13.277Z,12.83
2023-04-16T12:28:45.924Z,12.88
2023-04-16T12:32:23.718Z,12.73
2023-04-16T12:36:02.247Z,12.53
2023-04-16T12:39:39.018Z,12.43
2023-04-16T12:43:16.599Z,12.35
2023-04-16T12:46:56.687Z,12.10
2023-04-16T12:50:32.004Z,11.82
2023-04-16T12:54:09.976Z,11.72
2023-04-16T12:57:49.017Z,11.58
2023-04-16T13:01:25.799Z,11.33
2023-04-16T13:05:02.785Z,11.19
2023-04-16T13:08:42.025Z,11.14
2023-04-16T13:12:19.009Z,11.04
2023-04-16T13:15:55.977Z,10.97
2023-04-16T13:19:33.652Z,10.96
2023-04-16T13:23:12.100Z,10.72
2023-04-16T13:26:48.819Z,10.53
2023-04-16T13:30:26.854Z,10.38
2023-04-16T13:34:05.058Z,10.22
2023-04-16T13:37:42.138Z,10.15
2023-04-16T13:41:19.578Z,10.12
2023-04-16T13:44:58.495Z,10.01
2023-04-16T13:48:35.190Z,9.90
2023-04-16T13:52:12.586Z,9.98
2023-04-16T13:55:51.226Z,10.08
2023-04-16T13:59:27.910Z,10.17
2023-04-16T14:03:07.071Z,10.22
2023-04-16T14:06:43.167Z,10.19
2023-04-16T14:10:21.385Z,10.11
2023-04-16T14:13:58.629Z,10.04
2023-04-16T14:17:37.471Z,9.99
2023-04-16T14:21:13.700Z,9.98
2023-04-16T14:24:51.402Z,9.94
2023-04-16T14:28:29.392Z,9.89
2023-04-16T14:32:07.116Z,9.82
2023-04-16T14:35:45.098Z,9.78
2023-04-16T14:39:22.712Z,9.85
2023-04-16T14:43:00.126Z,9.97
2023-04-16T14:46:38.847Z,10.11
2023-04-16T14:50:15.904Z,10.20
2023-04-16T14:53:53.242Z,10.26
2023-04-16T14:57:31.115Z,10.17
2023-04-16T15:01:09.567Z,10.16
2023-04-16T15:04:46.398Z,10.16
2023-04-16T15:08:24.829Z,10.19
2023-04-16T15:12:01.657Z,10.24
2023-04-16T15:15:39.414Z,10.30
2023-04-16T15:19:17.890Z,10.32
2023-04-16T15:22:54.674Z,10.27
2023-04-16T15:26:32.566Z,10.19
2023-04-16T15:30:10.767Z,10.12
2023-04-16T15:33:48.642Z,10.06
2023-04-16T15:37:25.064Z,10.04
2023-04-16T15:41:03.118Z,10.04
2023-04-16T15:44:40.899Z,10.04
2023-04-16T15:48:18.238Z,9.99
2023-04-16T15:51:56.636Z,9.97
2023-04-16T15:55:33.714Z,9.93
2023-04-16T15:59:11.838Z,9.92
2023-04-16T16:03:09.264Z,9.83
2023-04-16T16:06:27.558Z,9.77
2023-04-16T16:10:06.897Z,9.66
2023-04-16T16:13:44.123Z,9.60
2023-04-16T16:17:20.784Z,9.53
2023-04-16T16:20:58.551Z,9.35
2023-04-16T16:24:35.273Z,9.16
2023-04-16T16:28:12.825Z,9.03
2023-04-16T16:32:10.777Z,8.94
2023-04-16T16:35:28.229Z,8.75
2023-04-16T16:39:05.924Z,8.59
2023-04-16T16:42:43.738Z,8.50
2023-04-16T16:46:21.636Z,8.43
2023-04-16T16:50:01.324Z,8.34
2023-04-16T16:53:36.793Z,8.23
2023-04-16T16:57:15.629Z,8.08
2023-04-16T17:00:52.100Z,7.98
2023-04-16T17:04:29.613Z,7.92
2023-04-16T17:08:07.254Z,7.89
2023-04-16T17:11:45.114Z,7.82
2023-04-16T17:15:22.865Z,7.76
2023-04-16T17:19:01.493Z,7.69
2023-04-16T17:22:39.476Z,7.63
2023-04-16T17:26:15.459Z,7.61
2023-04-16T17:30:00.221Z,7.55
2023-04-16T17:33:31.327Z,7.53
2023-04-16T17:37:08.564Z,7.54
2023-04-16T17:40:46.292Z,7.53
2023-04-16T17:44:25.840Z,7.53
2023-04-16T17:48:01.817Z,7.51
2023-04-16T17:51:39.029Z,7.44
2023-04-16T17:55:17.180Z,7.37
2023-04-16T17:58:54.698Z,7.36
2023-04-16T18:02:52.289Z,7.37
2023-04-16T18:06:10.218Z,7.33
2023-04-16T18:09:47.987Z,7.30
2023-04-16T18:13:25.614Z,7.28
2023-04-16T18:17:06.169Z,7.30
2023-04-16T18:20:41.391Z,7.26
2023-04-16T18:24:18.777Z,7.19
2023-04-16T18:27:57.738Z,7.16
2023-04-16T18:31:33.889Z,7.12
2023-04-16T18:35:12.054Z,7.10
2023-04-16T18:39:00.191Z,7.17
2023-04-16T18:42:29.605Z,7.22
2023-04-16T18:46:04.528Z,7.27
2023-04-16T18:49:42.623Z,7.31
2023-04-16T18:53:19.930Z,7.37
2023-04-16T18:56:59.672Z,7.37
2023-04-16T19:00:36.160Z,7.36
2023-04-16T19:04:13.179Z,7.37
2023-04-16T19:07:50.907Z,7.33
2023-04-16T19:11:28.456Z,7.22
2023-04-16T19:15:06.608Z,7.11
2023-04-16T19:18:43.793Z,7.12
2023-04-16T19:22:21.359Z,7.10
2023-04-16T19:25:58.956Z,6.96
2023-04-16T19:29:37.246Z,6.80
2023-04-16T19:33:14.332Z,6.66
2023-04-16T19:36:52.381Z,6.54
2023-04-16T19:40:49.040Z,6.49
2023-04-16T19:44:07.889Z,6.47
2023-04-16T19:47:45.219Z,6.45
2023-04-16T19:51:23.306Z,6.38
2023-04-16T19:55:00.866Z,6.33
2023-04-16T19:58:40.386Z,6.28
2023-04-16T20:02:16.001Z,6.21
2023-04-16T20:05:53.736Z,6.18
2023-04-16T20:09:31.245Z,6.17
2023-04-16T20:13:12.303Z,6.16
2023-04-16T20:16:46.555Z,6.14
2023-04-16T20:20:24.364Z,6.11
2023-04-16T20:24:02.025Z,6.10
2023-04-16T20:27:39.448Z,6.12
2023-04-16T20:31:17.259Z,6.15
2023-04-16T20:34:57.920Z,6.14
2023-04-16T20:38:34.305Z,6.09
2023-04-16T20:42:10.720Z,6.07
2023-04-16T20:45:50.212Z,6.04
2023-04-16T20:49:25.656Z,6.02
2023-04-16T20:53:03.805Z,6.08
2023-04-16T20:56:41.942Z,6.15
2023-04-16T21:00:18.588Z,6.21
2023-04-16T21:07:34.080Z,6.30
2023-04-16T21:11:12.680Z,6.33
2023-04-16T21:14:49.802Z,6.41
2023-04-16T21:18:27.056Z,6.50
2023-04-16T21:22:04.940Z,6.55
2023-04-16T21:25:42.411Z,6.61
2023-04-16T21:29:20.208Z,6.73
2023-04-16T21:32:57.952Z,6.84
2023-04-16T21:36:35.755Z,6.93
2023-04-16T21:40:13.442Z,6.99
2023-04-16T21:43:51.057Z,7.02
2023-04-16T21:47:28.485Z,7.04
2023-04-16T21:51:06.707Z,7.04
2023-04-16T21:54:44.339Z,7.07
2023-04-16T21:58:21.672Z,7.13
2023-04-16T22:01:59.046Z,7.12
2023-04-16T22:05:37.524Z,7.04
2023-04-16T22:09:16.601Z,6.98
2023-04-16T22:12:55.005Z,6.94
2023-04-16T22:16:30.201Z,6.88
2023-04-16T22:20:11.629Z,6.81
2023-04-16T22:23:45.820Z,6.81
2023-04-16T22:27:23.378Z,6.81
2023-04-16T22:31:00.407Z,6.85
2023-04-16T22:34:38.598Z,6.96
2023-04-16T22:38:16.688Z,7.03
2023-04-16T22:41:53.604Z,7.01
2023-04-16T22:45:31.836Z,6.98
2023-04-16T22:49:08.918Z,6.94
2023-04-16T22:52:46.844Z,6.91
2023-04-16T22:56:28.847Z,6.92
2023-04-16T23:00:01.982Z,6.84
2023-04-16T23:03:39.954Z,6.87
2023-04-16T23:07:17.301Z,6.85
2023-04-16T23:10:55.145Z,6.82
2023-04-16T23:14:32.801Z,6.82
2023-04-16T23:18:10.593Z,6.82
2023-04-16T23:21:48.120Z,6.75
2023-04-16T23:25:25.708Z,6.71
2023-04-16T23:29:03.464Z,6.71
2023-04-16T23:32:41.220Z,6.68
2023-04-16T23:36:18.656Z,6.67
2023-04-16T23:39:56.381Z,6.65
2023-04-16T23:43:35.193Z,6.67
2023-04-16T23:47:11.887Z,6.64
2023-04-16T23:50:49.521Z,6.64
2023-04-16T23:54:27.643Z,6.64
2023-04-16T23:58:04.720Z,6.66
